Hlavní strana
METAR-TAF:

METAR-TAF

Letiště :

Trondheim, Norsko

zeměpisná šířka: 63-28N, zeměpisná délka: 010-56E, výška: 1 m

Aktuální stav počasí

Zpráva byla vytvořena před 26 minutami, v 02:50 UTC
Jihovýchodní vítr 7 kt
Teplota 0°C
Vlhkost vzduchu 93%
Tlak 1019 hPa
Viditelnost 10 km a více
Oblačno až skoro zataženo ve výšce 5500 ft

METAR: ENVA 180250Z 13007KT 9999 BKN055 00/M01 Q1019 RMK WIND 670FT 11005KT

Čas: 04:16 (03:16 UTC)

Předpověď počasí

Předpověď platná od 18 v 00 UTC do 18 v 24 UTC
Východní vítr 7 kt
Viditelnost 10 km a více
Oblačno až skoro zataženo ve výšce 3000 ft
Pravděpodobnost 30%
od 18 v 14 UTC do 18 v 24 UTC
Viditelnost: 4000 m
ve výšce 1400 ft
slabý déšť, sníh

TAF: ENVA 1800/1824 10007KT 9999 BKN030 PROB30 1814/1824 4000 -RASN VV014

Stav a předpovědi počasí z více než 4 000 letišť (zprávy METAR a TAF).

Červené a žluté tečky na mapě představují dostupné meteorologické stanice.

Když kurzor umístíte na tečku, zobrazí se název stanice.

Pak kliknutím zobrazíte stav a předpověď počasí.

Chcete-li změnit mapu, kliknutím na zelené tlačítko se znaménkem +mapu přiblížíte, kliknutím na zelené tlačítko se znaménkem – mapu oddálíte a kliknutím na zelené šipky přejdete na sousední mapy.


METAR-TAF: